sensor_id;sensor_type;location;lat;lon;timestamp;pressure;altitude;pressure_sealevel;temperature;humidity
31239;BME280;17871;31.584;74.450;2023-03-03T00:02:23;99347.78;;;18.79;78.86
31239;BME280;17871;31.584;74.450;2023-03-03T00:04:52;99347.91;;;18.67;79.27
31239;BME280;17871;31.584;74.450;2023-03-03T00:07:21;99351.25;;;18.75;78.71
31239;BME280;17871;31.584;74.450;2023-03-03T00:09:50;99351.25;;;18.75;79.04
31239;BME280;17871;31.584;74.450;2023-03-03T00:12:29;99346.78;;;18.93;79.03
31239;BME280;17871;31.584;74.450;2023-03-03T00:14:58;99347.88;;;18.70;79.15
31239;BME280;17871;31.584;74.450;2023-03-03T00:17:29;99353.06;;;18.68;79.24
31239;BME280;17871;31.584;74.450;2023-03-03T00:20:01;99360.75;;;18.76;79.24
31239;BME280;17871;31.584;74.450;2023-03-03T00:22:50;99361.63;;;18.75;79.08
31239;BME280;17871;31.584;74.450;2023-03-03T00:25:30;99358.94;;;18.84;79.55
31239;BME280;17871;31.584;74.450;2023-03-03T00:28:27;99358.84;;;18.93;78.96
31239;BME280;17871;31.584;74.450;2023-03-03T00:30:59;99361.59;;;18.78;79.30
31239;BME280;17871;31.584;74.450;2023-03-03T00:33:33;99363.31;;;18.79;78.88
31239;BME280;17871;31.584;74.450;2023-03-03T00:36:37;99364.78;;;19.01;78.61
31239;BME280;17871;31.584;74.450;2023-03-03T00:39:21;99363.19;;;18.91;78.81
31239;BME280;17871;31.584;74.450;2023-03-03T00:41:53;99362.47;;;18.77;78.46
31239;BME280;17871;31.584;74.450;2023-03-03T00:44:38;99367.47;;;18.96;78.44
31239;BME280;17871;31.584;74.450;2023-03-03T00:47:36;99372.53;;;19.04;77.99
31239;BME280;17871;31.584;74.450;2023-03-03T00:52:37;99377.84;;;18.93;77.64
31239;BME280;17871;31.584;74.450;2023-03-03T00:55:07;99370.97;;;18.89;77.29
31239;BME280;17871;31.584;74.450;2023-03-03T00:57:35;99376.25;;;18.80;77.71
31239;BME280;17871;31.584;74.450;2023-03-03T01:00:07;99375.25;;;18.92;77.22
31239;BME280;17871;31.584;74.450;2023-03-03T01:02:41;99378.75;;;18.88;77.72
31239;BME280;17871;31.584;74.450;2023-03-03T01:05:17;99380.44;;;18.92;77.93
31239;BME280;17871;31.584;74.450;2023-03-03T01:07:49;99387.34;;;18.91;77.56
31239;BME280;17871;31.584;74.450;2023-03-03T01:10:20;99387.41;;;18.87;77.49
31239;BME280;17871;31.584;74.450;2023-03-03T01:12:49;99380.44;;;18.92;77.73
31239;BME280;17871;31.584;74.450;2023-03-03T01:15:19;99380.44;;;18.90;77.57
31239;BME280;17871;31.584;74.450;2023-03-03T01:17:51;99382.97;;;18.98;77.56
31239;BME280;17871;31.584;74.450;2023-03-03T01:20:21;99388.22;;;18.90;77.80
31239;BME280;17871;31.584;74.450;2023-03-03T01:22:52;99385.66;;;18.89;77.71
31239;BME280;17871;31.584;74.450;2023-03-03T01:25:21;99396.03;;;18.87;77.35
31239;BME280;17871;31.584;74.450;2023-03-03T01:27:50;99398.63;;;18.84;77.90
31239;BME280;17871;31.584;74.450;2023-03-03T01:30:20;99396.06;;;18.86;77.71
31239;BME280;17871;31.584;74.450;2023-03-03T01:32:49;99402.00;;;18.94;77.33
31239;BME280;17871;31.584;74.450;2023-03-03T01:35:19;99406.41;;;18.86;77.91
31239;BME280;17871;31.584;74.450;2023-03-03T01:37:49;99401.19;;;18.89;77.66
31239;BME280;17871;31.584;74.450;2023-03-03T01:40:24;99402.00;;;18.95;77.52
31239;BME280;17871;31.584;74.450;2023-03-03T01:42:54;99406.41;;;18.86;77.58
31239;BME280;17871;31.584;74.450;2023-03-03T01:45:30;99414.22;;;18.83;78.01
31239;BME280;17871;31.584;74.450;2023-03-03T01:48:15;99413.16;;;19.02;77.36
31239;BME280;17871;31.584;74.450;2023-03-03T01:51:04;99419.22;;;18.99;77.54
31239;BME280;17871;31.584;74.450;2023-03-03T01:53:41;99417.56;;;18.91;77.76
31239;BME280;17871;31.584;74.450;2023-03-03T01:56:13;99429.75;;;18.83;77.30
31239;BME280;17871;31.584;74.450;2023-03-03T01:58:53;99429.56;;;19.01;77.12
31239;BME280;17871;31.584;74.450;2023-03-03T02:01:28;99433.97;;;18.93;77.27
31239;BME280;17871;31.584;74.450;2023-03-03T02:03:59;99432.13;;;19.04;76.60
31239;BME280;17871;31.584;74.450;2023-03-03T02:06:33;99437.22;;;19.11;76.70
31239;BME280;17871;31.584;74.450;2023-03-03T02:09:22;99444.03;;;19.23;76.36
31239;BME280;17871;31.584;74.450;2023-03-03T02:11:58;99450.03;;;19.24;76.19
31239;BME280;17871;31.584;74.450;2023-03-03T02:14:29;99442.41;;;19.13;75.82
31239;BME280;17871;31.584;74.450;2023-03-03T02:16:58;99456.13;;;19.21;75.99
31239;BME280;17871;31.584;74.450;2023-03-03T02:19:34;99465.75;;;19.08;76.55
31239;BME280;17871;31.584;74.450;2023-03-03T02:22:10;99463.00;;;19.25;76.06
31239;BME280;17871;31.584;74.450;2023-03-03T02:24:52;99460.19;;;19.48;75.80
31239;BME280;17871;31.584;74.450;2023-03-03T02:27:27;99471.53;;;19.36;75.52
31239;BME280;17871;31.584;74.450;2023-03-03T02:30:18;99466.22;;;19.48;75.72
31239;BME280;17871;31.584;74.450;2023-03-03T02:32:49;99474.13;;;19.33;75.37
31239;BME280;17871;31.584;74.450;2023-03-03T02:35:42;99476.63;;;19.45;75.18
31239;BME280;17871;31.584;74.450;2023-03-03T02:46:35;99493.69;;;19.64;74.40
31239;BME280;17871;31.584;74.450;2023-03-03T02:49:07;99501.50;;;19.60;74.57
31239;BME280;17871;31.584;74.450;2023-03-03T02:51:38;99499.00;;;19.55;74.91
31239;BME280;17871;31.584;74.450;2023-03-03T02:54:09;99506.81;;;19.52;74.72
31239;BME280;17871;31.584;74.450;2023-03-03T02:56:40;99513.66;;;19.58;74.30
31239;BME280;17871;31.584;74.450;2023-03-03T02:59:11;99512.81;;;19.54;74.38
31239;BME280;17871;31.584;74.450;2023-03-03T03:01:45;99518.81;;;19.61;74.32
31239;BME280;17871;31.584;74.450;2023-03-03T03:04:20;99519.47;;;19.78;73.99
31239;BME280;17871;31.584;74.450;2023-03-03T03:06:51;99526.56;;;19.62;74.22
31239;BME280;17871;31.584;74.450;2023-03-03T03:09:24;99521.94;;;19.86;73.84
31239;BME280;17871;31.584;74.450;2023-03-03T03:11:54;99529.88;;;19.74;73.50
31239;BME280;17871;31.584;74.450;2023-03-03T03:14:25;99532.41;;;19.80;73.73
31239;BME280;17871;31.584;74.450;2023-03-03T03:16:56;99538.34;;;19.91;72.98
31239;BME280;17871;31.584;74.450;2023-03-03T03:19:27;99539.06;;;20.02;72.58
31239;BME280;17871;31.584;74.450;2023-03-03T03:22:00;99537.13;;;20.16;72.35
31239;BME280;17871;31.584;74.450;2023-03-03T03:24:33;99540.47;;;20.26;72.12
31239;BME280;17871;31.584;74.450;2023-03-03T03:27:06;99552.66;;;20.20;72.31
31239;BME280;17871;31.584;74.450;2023-03-03T03:29:36;99537.81;;;20.33;72.07
31239;BME280;17871;31.584;74.450;2023-03-03T03:32:07;99541.50;;;20.12;72.33
31239;BME280;17871;31.584;74.450;2023-03-03T03:34:37;99543.81;;;20.35;71.91
31239;BME280;17871;31.584;74.450;2023-03-03T03:37:08;99542.75;;;20.51;71.31
31239;BME280;17871;31.584;74.450;2023-03-03T03:39:38;99542.63;;;20.60;70.85
31239;BME280;17871;31.584;74.450;2023-03-03T03:42:08;99550.41;;;20.59;71.30
31239;BME280;17871;31.584;74.450;2023-03-03T03:44:37;99551.06;;;20.75;70.33
31239;BME280;17871;31.584;74.450;2023-03-03T03:47:06;99549.19;;;20.83;70.20
31239;BME280;17871;31.584;74.450;2023-03-03T03:49:36;99557.97;;;20.76;70.58
31239;BME280;17871;31.584;74.450;2023-03-03T03:52:05;99557.66;;;20.97;69.94
31239;BME280;17871;31.584;74.450;2023-03-03T03:54:34;99560.88;;;21.14;70.10
31239;BME280;17871;31.584;74.450;2023-03-03T03:57:03;99572.09;;;21.16;69.64
31239;BME280;17871;31.584;74.450;2023-03-03T03:59:33;99575.53;;;20.60;71.16
31239;BME280;17871;31.584;74.450;2023-03-03T04:02:03;99568.22;;;20.85;71.34
31239;BME280;17871;31.584;74.450;2023-03-03T04:04:32;99563.34;;;21.20;70.69
31239;BME280;17871;31.584;74.450;2023-03-03T04:07:01;99557.13;;;21.29;70.30
31239;BME280;17871;31.584;74.450;2023-03-03T04:09:30;99559.13;;;21.13;70.66
31239;BME280;17871;31.584;74.450;2023-03-03T04:12:00;99555.81;;;21.02;71.13
31239;BME280;17871;31.584;74.450;2023-03-03T04:14:30;99560.53;;;21.32;70.32
31239;BME280;17871;31.584;74.450;2023-03-03T04:16:59;99560.22;;;21.50;70.28
31239;BME280;17871;31.584;74.450;2023-03-03T04:19:29;99557.38;;;21.62;69.70
31239;BME280;17871;31.584;74.450;2023-03-03T04:21:59;99567.78;;;21.62;69.05
31239;BME280;17871;31.584;74.450;2023-03-03T04:24:29;99568.28;;;21.83;68.79
31239;BME280;17871;31.584;74.450;2023-03-03T04:26:59;99562.28;;;21.79;68.40
31239;BME280;17871;31.584;74.450;2023-03-03T04:29:29;99564.88;;;21.78;68.61
31239;BME280;17871;31.584;74.450;2023-03-03T04:31:58;99573.25;;;21.95;68.47
31239;BME280;17871;31.584;74.450;2023-03-03T04:34:28;99572.84;;;22.16;68.32
31239;BME280;17871;31.584;74.450;2023-03-03T04:36:57;99569.41;;;22.14;68.08
31239;BME280;17871;31.584;74.450;2023-03-03T04:39:27;99566.91;;;22.09;68.41
31239;BME280;17871;31.584;74.450;2023-03-03T04:41:57;99571.19;;;22.12;68.42
31239;BME280;17871;31.584;74.450;2023-03-03T04:44:27;99577.66;;;22.34;67.31
31239;BME280;17871;31.584;74.450;2023-03-03T04:46:56;99584.31;;;22.47;67.46
31239;BME280;17871;31.584;74.450;2023-03-03T04:49:25;99576.97;;;22.64;66.67
31239;BME280;17871;31.584;74.450;2023-03-03T04:51:54;99571.84;;;22.61;67.38
31239;BME280;17871;31.584;74.450;2023-03-03T04:54:23;99569.13;;;22.67;67.80
31239;BME280;17871;31.584;74.450;2023-03-03T04:56:52;99566.53;;;22.67;66.27
31239;BME280;17871;31.584;74.450;2023-03-03T04:59:22;99573.19;;;22.79;66.27
31239;BME280;17871;31.584;74.450;2023-03-03T05:01:50;99568.72;;;22.84;65.60
31239;BME280;17871;31.584;74.450;2023-03-03T05:04:20;99560.66;;;22.56;66.33
31239;BME280;17871;31.584;74.450;2023-03-03T05:06:49;99566.63;;;22.61;66.65
31239;BME280;17871;31.584;74.450;2023-03-03T05:09:18;99564.00;;;23.00;66.36
31239;BME280;17871;31.584;74.450;2023-03-03T05:11:47;99559.50;;;23.06;66.39
31239;BME280;17871;31.584;74.450;2023-03-03T05:14:16;99562.53;;;23.23;65.53
31239;BME280;17871;31.584;74.450;2023-03-03T05:16:44;99569.81;;;23.46;64.71
31239;BME280;17871;31.584;74.450;2023-03-03T05:19:14;99571.44;;;23.50;64.11
31239;BME280;17871;31.584;74.450;2023-03-03T05:21:43;99573.00;;;23.57;63.34
31239;BME280;17871;31.584;74.450;2023-03-03T05:24:13;99566.75;;;23.63;62.59
31239;BME280;17871;31.584;74.450;2023-03-03T05:26:41;99563.78;;;23.76;61.59
31239;BME280;17871;31.584;74.450;2023-03-03T05:29:11;99564.72;;;24.05;60.45
31239;BME280;17871;31.584;74.450;2023-03-03T05:31:39;99565.53;;;24.07;60.04
31239;BME280;17871;31.584;74.450;2023-03-03T05:34:11;99553.03;;;23.87;60.52
31239;BME280;17871;31.584;74.450;2023-03-03T05:36:40;99547.59;;;23.95;61.10
31239;BME280;17871;31.584;74.450;2023-03-03T05:39:09;99548.44;;;23.95;61.51
31239;BME280;17871;31.584;74.450;2023-03-03T05:41:38;99544.50;;;24.41;60.93
31239;BME280;17871;31.584;74.450;2023-03-03T05:44:07;99565.00;;;24.54;59.52
31239;BME280;17871;31.584;74.450;2023-03-03T05:46:36;99558.91;;;24.54;59.36
31239;BME280;17871;31.584;74.450;2023-03-03T05:49:05;99561.78;;;24.74;57.99
31239;BME280;17871;31.584;74.450;2023-03-03T05:51:34;99564.44;;;24.72;57.51
31239;BME280;17871;31.584;74.450;2023-03-03T05:54:03;99562.53;;;24.77;57.65
31239;BME280;17871;31.584;74.450;2023-03-03T05:56:32;99560.94;;;25.01;56.75
31239;BME280;17871;31.584;74.450;2023-03-03T05:59:01;99558.44;;;24.97;55.40
31239;BME280;17871;31.584;74.450;2023-03-03T06:01:30;99563.56;;;25.00;56.27
31239;BME280;17871;31.584;74.450;2023-03-03T06:04:00;99565.09;;;25.07;56.96
31239;BME280;17871;31.584;74.450;2023-03-03T06:06:29;99565.53;;;25.19;55.37
31239;BME280;17871;31.584;74.450;2023-03-03T06:09:01;99569.72;;;25.51;55.54
31239;BME280;17871;31.584;74.450;2023-03-03T06:11:31;99556.94;;;25.42;55.73
31239;BME280;17871;31.584;74.450;2023-03-03T06:14:00;99561.78;;;25.28;56.45
31239;BME280;17871;31.584;74.450;2023-03-03T06:16:29;99566.47;;;25.43;55.12
31239;BME280;17871;31.584;74.450;2023-03-03T06:18:57;99566.91;;;25.57;54.70
31239;BME280;17871;31.584;74.450;2023-03-03T06:21:26;99562.44;;;25.59;55.71
31239;BME280;17871;31.584;74.450;2023-03-03T06:23:55;99551.88;;;25.62;53.52
31239;BME280;17871;31.584;74.450;2023-03-03T06:26:24;99540.56;;;25.62;54.37
31239;BME280;17871;31.584;74.450;2023-03-03T06:28:53;99540.38;;;25.66;53.00
31239;BME280;17871;31.584;74.450;2023-03-03T06:31:23;99543.06;;;25.65;52.58
31239;BME280;17871;31.584;74.450;2023-03-03T06:33:53;99531.28;;;25.76;52.35
31239;BME280;17871;31.584;74.450;2023-03-03T06:36:21;99532.63;;;25.88;51.20
31239;BME280;17871;31.584;74.450;2023-03-03T06:38:51;99521.41;;;26.08;51.48
31239;BME280;17871;31.584;74.450;2023-03-03T06:41:20;99525.47;;;26.15;50.97
31239;BME280;17871;31.584;74.450;2023-03-03T06:43:49;99517.59;;;26.16;49.91
31239;BME280;17871;31.584;74.450;2023-03-03T06:46:18;99522.84;;;26.15;49.18
31239;BME280;17871;31.584;74.450;2023-03-03T06:48:48;99515.00;;;26.16;46.88
31239;BME280;17871;31.584;74.450;2023-03-03T06:53:54;99505.44;;;26.37;48.08
31239;BME280;17871;31.584;74.450;2023-03-03T06:56:27;99497.38;;;26.20;48.54
31239;BME280;17871;31.584;74.450;2023-03-03T06:58:59;99496.72;;;26.37;49.78
31239;BME280;17871;31.584;74.450;2023-03-03T07:01:34;99495.25;;;26.51;48.09
31239;BME280;17871;31.584;74.450;2023-03-03T07:04:28;99491.13;;;26.67;49.01
31239;BME280;17871;31.584;74.450;2023-03-03T07:07:18;99485.53;;;26.75;49.06
31239;BME280;17871;31.584;74.450;2023-03-03T07:09:53;99484.81;;;26.71;49.68
31239;BME280;17871;31.584;74.450;2023-03-03T07:12:27;99479.13;;;26.84;46.23
31239;BME280;17871;31.584;74.450;2023-03-03T07:15:16;99474.25;;;26.95;45.61
31239;BME280;17871;31.584;74.450;2023-03-03T07:17:51;99471.34;;;26.80;45.23
31239;BME280;17871;31.584;74.450;2023-03-03T07:22:57;99461.75;;;26.79;43.82
31239;BME280;17871;31.584;74.450;2023-03-03T07:25:31;99459.50;;;26.92;45.29
31239;BME280;17871;31.584;74.450;2023-03-03T07:30:48;99456.44;;;27.03;45.43
31239;BME280;17871;31.584;74.450;2023-03-03T07:33:40;99449.59;;;27.19;45.06
31239;BME280;17871;31.584;74.450;2023-03-03T07:36:34;99448.47;;;27.24;43.34
31239;BME280;17871;31.584;74.450;2023-03-03T07:39:47;99446.53;;;27.09;44.58
31239;BME280;17871;31.584;74.450;2023-03-03T07:42:40;99436.94;;;27.49;44.36
31239;BME280;17871;31.584;74.450;2023-03-03T07:45:29;99428.34;;;27.45;42.76
31239;BME280;17871;31.584;74.450;2023-03-03T07:48:25;99424.53;;;27.52;43.35
31239;BME280;17871;31.584;74.450;2023-03-03T07:51:05;99410.59;;;27.50;42.88
31239;BME280;17871;31.584;74.450;2023-03-03T07:53:39;99419.28;;;27.32;42.70
31239;BME280;17871;31.584;74.450;2023-03-03T07:56:19;99413.00;;;27.55;42.06
31239;BME280;17871;31.584;74.450;2023-03-03T07:58:49;99412.03;;;27.37;42.39
31239;BME280;17871;31.584;74.450;2023-03-03T08:01:31;99407.50;;;27.41;42.36
31239;BME280;17871;31.584;74.450;2023-03-03T08:04:10;99398.53;;;27.46;44.41
31239;BME280;17871;31.584;74.450;2023-03-03T08:06:44;99388.66;;;27.51;43.57
31239;BME280;17871;31.584;74.450;2023-03-03T08:14:37;99390.28;;;27.54;42.70
31239;BME280;17871;31.584;74.450;2023-03-03T08:17:23;99384.78;;;27.78;42.07
31239;BME280;17871;31.584;74.450;2023-03-03T08:19:54;99388.53;;;27.54;43.04
31239;BME280;17871;31.584;74.450;2023-03-03T08:24:58;99369.72;;;27.63;43.64
31239;BME280;17871;31.584;74.450;2023-03-03T08:27:27;99367.09;;;27.63;43.56
31239;BME280;17871;31.584;74.450;2023-03-03T08:29:56;99362.69;;;27.45;43.50
31239;BME280;17871;31.584;74.450;2023-03-03T08:32:24;99371.56;;;27.61;43.58
31239;BME280;17871;31.584;74.450;2023-03-03T08:34:54;99360.31;;;27.76;42.86
31239;BME280;17871;31.584;74.450;2023-03-03T08:37:22;99351.59;;;27.57;42.67
31239;BME280;17871;31.584;74.450;2023-03-03T08:39:51;99356.38;;;27.49;42.82
31239;BME280;17871;31.584;74.450;2023-03-03T08:42:20;99342.84;;;27.38;42.65
31239;BME280;17871;31.584;74.450;2023-03-03T08:44:49;99340.50;;;27.32;41.88
31239;BME280;17871;31.584;74.450;2023-03-03T08:47:18;99344.88;;;27.70;43.32
31239;BME280;17871;31.584;74.450;2023-03-03T08:49:47;99337.84;;;27.71;43.19
31239;BME280;17871;31.584;74.450;2023-03-03T08:52:16;99337.19;;;27.47;43.46
31239;BME280;17871;31.584;74.450;2023-03-03T08:54:45;99329.41;;;27.64;43.34
31239;BME280;17871;31.584;74.450;2023-03-03T08:57:13;99336.13;;;27.70;43.27
31239;BME280;17871;31.584;74.450;2023-03-03T08:59:43;99318.75;;;27.67;43.59
31239;BME280;17871;31.584;74.450;2023-03-03T09:02:12;99318.28;;;27.59;42.79
31239;BME280;17871;31.584;74.450;2023-03-03T09:04:41;99313.19;;;27.73;42.57
31239;BME280;17871;31.584;74.450;2023-03-03T09:07:10;99311.94;;;27.63;42.42
31239;BME280;17871;31.584;74.450;2023-03-03T09:09:40;99312.56;;;27.68;42.59
31239;BME280;17871;31.584;74.450;2023-03-03T09:12:41;99302.25;;;27.82;42.37
31239;BME280;17871;31.584;74.450;2023-03-03T09:17:50;99291.41;;;27.71;42.33
31239;BME280;17871;31.584;74.450;2023-03-03T09:20:32;99301.31;;;27.83;42.77
31239;BME280;17871;31.584;74.450;2023-03-03T09:25:52;99285.25;;;27.72;42.50
31239;BME280;17871;31.584;74.450;2023-03-03T09:30:57;99288.94;;;27.68;43.35
31239;BME280;17871;31.584;74.450;2023-03-03T09:33:49;99281.75;;;27.72;43.62
31239;BME280;17871;31.584;74.450;2023-03-03T09:38:51;99276.09;;;27.62;43.91
31239;BME280;17871;31.584;74.450;2023-03-03T09:53:18;99252.75;;;27.92;43.50
31239;BME280;17871;31.584;74.450;2023-03-03T09:56:14;99250.44;;;27.67;43.50
31239;BME280;17871;31.584;74.450;2023-03-03T09:59:02;99255.41;;;27.73;43.87
31239;BME280;17871;31.584;74.450;2023-03-03T10:02:10;99241.91;;;27.45;43.75
31239;BME280;17871;31.584;74.450;2023-03-03T10:08:26;99240.09;;;27.64;43.73
31239;BME280;17871;31.584;74.450;2023-03-03T10:13:59;99232.38;;;27.43;44.75
31239;BME280;17871;31.584;74.450;2023-03-03T10:30:57;99215.25;;;28.06;44.27
31239;BME280;17871;31.584;74.450;2023-03-03T10:33:46;99219.41;;;27.93;44.45
31239;BME280;17871;31.584;74.450;2023-03-03T10:53:31;99207.06;;;27.95;45.30
31239;BME280;17871;31.584;74.450;2023-03-03T10:56:31;99202.56;;;27.97;46.12
31239;BME280;17871;31.584;74.450;2023-03-03T11:02:03;99204.59;;;27.92;46.60
31239;BME280;17871;31.584;74.450;2023-03-03T11:04:46;99200.25;;;27.91;46.45
31239;BME280;17871;31.584;74.450;2023-03-03T11:07:40;99203.78;;;27.90;45.91
31239;BME280;17871;31.584;74.450;2023-03-03T11:13:20;99193.91;;;27.77;47.04
31239;BME280;17871;31.584;74.450;2023-03-03T11:19:28;99191.34;;;27.40;47.96
31239;BME280;17871;31.584;74.450;2023-03-03T11:24:44;99192.41;;;27.55;48.10
31239;BME280;17871;31.584;74.450;2023-03-03T11:31:03;99187.38;;;27.50;48.08
31239;BME280;17871;31.584;74.450;2023-03-03T11:33:46;99188.72;;;27.40;48.37
31239;BME280;17871;31.584;74.450;2023-03-03T11:36:27;99185.19;;;27.41;48.49
31239;BME280;17871;31.584;74.450;2023-03-03T11:39:16;99182.34;;;27.27;48.70
31239;BME280;17871;31.584;74.450;2023-03-03T11:47:30;99178.41;;;27.18;49.97
31239;BME280;17871;31.584;74.450;2023-03-03T11:50:10;99175.44;;;27.26;50.01
31239;BME280;17871;31.584;74.450;2023-03-03T11:58:24;99171.03;;;27.08;50.54
31239;BME280;17871;31.584;74.450;2023-03-03T12:03:47;99175.59;;;27.04;50.12
31239;BME280;17871;31.584;74.450;2023-03-03T12:06:35;99184.09;;;26.91;50.43
31239;BME280;17871;31.584;74.450;2023-03-03T12:15:07;99189.44;;;26.69;51.32
31239;BME280;17871;31.584;74.450;2023-03-03T12:20:24;99190.88;;;26.57;52.03
31239;BME280;17871;31.584;74.450;2023-03-03T12:26:39;99191.91;;;26.53;52.05
31239;BME280;17871;31.584;74.450;2023-03-03T12:29:26;99185.06;;;26.51;52.27
31239;BME280;17871;31.584;74.450;2023-03-03T12:32:09;99189.25;;;26.35;52.98
31239;BME280;17871;31.584;74.450;2023-03-03T12:35:18;99190.28;;;26.51;53.06
31239;BME280;17871;31.584;74.450;2023-03-03T12:38:09;99191.63;;;26.41;53.46
31239;BME280;17871;31.584;74.450;2023-03-03T12:41:04;99202.69;;;26.27;53.91
31239;BME280;17871;31.584;74.450;2023-03-03T12:43:42;99198.34;;;26.06;54.23
31239;BME280;17871;31.584;74.450;2023-03-03T12:46:18;99205.47;;;26.02;54.27
31239;BME280;17871;31.584;74.450;2023-03-03T12:48:55;99217.38;;;25.89;54.55
31239;BME280;17871;31.584;74.450;2023-03-03T12:57:08;99220.22;;;25.85;55.45
31239;BME280;17871;31.584;74.450;2023-03-03T13:05:15;99212.97;;;25.69;56.10
31239;BME280;17871;31.584;74.450;2023-03-03T13:07:55;99217.44;;;25.67;56.22
31239;BME280;17871;31.584;74.450;2023-03-03T13:10:42;99222.91;;;25.61;56.42
31239;BME280;17871;31.584;74.450;2023-03-03T13:13:27;99226.88;;;25.71;56.15
31239;BME280;17871;31.584;74.450;2023-03-03T13:16:09;99224.72;;;25.59;56.51
31239;BME280;17871;31.584;74.450;2023-03-03T13:19:00;99231.94;;;25.54;56.62
31239;BME280;17871;31.584;74.450;2023-03-03T13:29:32;99245.94;;;25.30;57.98
31239;BME280;17871;31.584;74.450;2023-03-03T13:42:49;99255.13;;;25.18;59.13
31239;BME280;17871;31.584;74.450;2023-03-03T13:48:58;99234.88;;;25.00;59.57
31239;BME280;17871;31.584;74.450;2023-03-03T13:51:02;99241.75;;;25.03;60.33
31239;BME280;17871;31.584;74.450;2023-03-03T14:08:08;99248.09;;;24.49;63.25
31239;BME280;17871;31.584;74.450;2023-03-03T14:10:46;99259.84;;;24.61;63.35
31239;BME280;17871;31.584;74.450;2023-03-03T14:16:06;99252.34;;;24.52;63.20
31239;BME280;17871;31.584;74.450;2023-03-03T14:18:45;99256.41;;;24.36;63.50
31239;BME280;17871;31.584;74.450;2023-03-03T14:21:33;99248.94;;;24.50;63.74
31239;BME280;17871;31.584;74.450;2023-03-03T14:24:20;99239.53;;;24.44;63.81
31239;BME280;17871;31.584;74.450;2023-03-03T14:26:53;99247.22;;;24.24;64.01
31239;BME280;17871;31.584;74.450;2023-03-03T14:29:31;99260.13;;;24.28;64.19
31239;BME280;17871;31.584;74.450;2023-03-03T14:32:05;99268.31;;;24.18;64.56
31239;BME280;17871;31.584;74.450;2023-03-03T14:34:56;99274.53;;;24.40;64.03
31239;BME280;17871;31.584;74.450;2023-03-03T14:37:48;99275.91;;;24.25;64.28
31239;BME280;17871;31.584;74.450;2023-03-03T14:40:21;99282.09;;;24.23;64.71
31239;BME280;17871;31.584;74.450;2023-03-03T14:42:59;99280.59;;;24.16;64.66
31239;BME280;17871;31.584;74.450;2023-03-03T14:45:33;99276.47;;;24.07;64.32
31239;BME280;17871;31.584;74.450;2023-03-03T14:48:22;99273.66;;;24.15;64.63
31239;BME280;17871;31.584;74.450;2023-03-03T14:51:31;99272.75;;;24.16;64.83
31239;BME280;17871;31.584;74.450;2023-03-03T14:54:01;99280.34;;;23.96;65.01
31239;BME280;17871;31.584;74.450;2023-03-03T14:56:37;99281.03;;;24.01;64.37
31239;BME280;17871;31.584;74.450;2023-03-03T14:59:20;99283.84;;;24.22;64.17
31239;BME280;17871;31.584;74.450;2023-03-03T15:04:47;99283.41;;;24.08;63.70
31239;BME280;17871;31.584;74.450;2023-03-03T15:07:35;99285.59;;;24.22;63.56
31239;BME280;17871;31.584;74.450;2023-03-03T15:10:06;99279.78;;;24.14;63.40
31239;BME280;17871;31.584;74.450;2023-03-03T15:12:38;99278.88;;;24.15;63.23
31239;BME280;17871;31.584;74.450;2023-03-03T15:15:23;99277.66;;;24.25;63.41
31239;BME280;17871;31.584;74.450;2023-03-03T15:17:57;99286.88;;;24.09;63.96
31239;BME280;17871;31.584;74.450;2023-03-03T15:20:45;99297.69;;;23.98;64.62
31239;BME280;17871;31.584;74.450;2023-03-03T15:39:57;99323.72;;;23.73;65.10
31239;BME280;17871;31.584;74.450;2023-03-03T15:53:16;99325.78;;;23.62;65.81
31239;BME280;17871;31.584;74.450;2023-03-03T15:59:24;99329.28;;;23.61;65.08
31239;BME280;17871;31.584;74.450;2023-03-03T16:04:36;99336.63;;;23.50;66.04
31239;BME280;17871;31.584;74.450;2023-03-03T16:07:34;99341.09;;;23.45;66.13
31239;BME280;17871;31.584;74.450;2023-03-03T16:13:29;99346.75;;;23.30;66.47
31239;BME280;17871;31.584;74.450;2023-03-03T16:25:02;99361.13;;;23.14;67.18
31239;BME280;17871;31.584;74.450;2023-03-03T16:33:49;99357.16;;;23.01;68.23
31239;BME280;17871;31.584;74.450;2023-03-03T16:36:29;99365.47;;;23.13;67.76
31239;BME280;17871;31.584;74.450;2023-03-03T16:39:12;99358.66;;;22.77;68.27
31239;BME280;17871;31.584;74.450;2023-03-03T16:41:50;99351.72;;;22.76;68.38
31239;BME280;17871;31.584;74.450;2023-03-03T16:44:38;99352.06;;;22.96;68.53
31239;BME280;17871;31.584;74.450;2023-03-03T16:56:21;99362.94;;;22.80;68.83
31239;BME280;17871;31.584;74.450;2023-03-03T16:59:15;99358.66;;;22.77;69.24
31239;BME280;17871;31.584;74.450;2023-03-03T17:07:42;99354.03;;;22.54;68.67
31239;BME280;17871;31.584;74.450;2023-03-03T17:10:28;99356.09;;;22.75;68.50
31239;BME280;17871;31.584;74.450;2023-03-03T17:20:56;99354.47;;;22.71;69.43
31239;BME280;17871;31.584;74.450;2023-03-03T17:26:41;99350.25;;;22.67;69.01
31239;BME280;17871;31.584;74.450;2023-03-03T17:32:20;99350.19;;;22.69;68.60
31239;BME280;17871;31.584;74.450;2023-03-03T17:35:20;99352.88;;;22.66;68.90
31239;BME280;17871;31.584;74.450;2023-03-03T17:38:18;99361.59;;;22.63;68.79
31239;BME280;17871;31.584;74.450;2023-03-03T17:46:17;99370.88;;;22.75;67.73
31239;BME280;17871;31.584;74.450;2023-03-03T17:49:05;99379.44;;;22.80;67.24
31239;BME280;17871;31.584;74.450;2023-03-03T17:51:54;99377.63;;;22.82;66.77
31239;BME280;17871;31.584;74.450;2023-03-03T18:03:06;99386.03;;;22.93;65.94
31239;BME280;17871;31.584;74.450;2023-03-03T18:20:33;99352.97;;;22.95;64.55
31239;BME280;17871;31.584;74.450;2023-03-03T18:23:32;99358.94;;;22.99;64.47
31239;BME280;17871;31.584;74.450;2023-03-03T18:26:27;99357.53;;;22.86;64.27
31239;BME280;17871;31.584;74.450;2023-03-03T18:32:01;99351.03;;;23.02;63.43